Time;durP1;ratioP1;P1;durP2;ratioP2;P2;SDS_P1;SDS_P2;PMS_P1;PMS_P2;Temp;Humidity;BMP_temperature;BMP_pressure;BME280_temperature;BME280_humidity;BME280_pressure;Samples;Min_cycle;Max_cycle;Signal;HPM_P1;HPM_P2
2023/05/19 00:01:55;;;;;;;4.25;2.47;;;19.70;69.20;;;;;;5012814;28;20124;-30
2023/05/19 00:04:22;;;;;;;3.47;2.42;;;19.10;61.20;;;;;;5012565;28;20052;-31
2023/05/19 00:06:50;;;;;;;3.40;2.20;;;19.20;72.80;;;;;;5013097;28;20128;-30
2023/05/19 00:09:18;;;;;;;3.90;2.60;;;;;;;;;;5012854;28;20072;-32
2023/05/19 00:11:45;;;;;;;4.72;2.53;;;19.50;72.40;;;;;;5012950;28;20050;-30
2023/05/19 00:14:12;;;;;;;4.50;2.30;;;19.10;55.90;;;;;;5012675;28;20050;-30
2023/05/19 00:16:41;;;;;;;5.38;2.35;;;18.50;71.60;;;;;;5012647;28;20517;-30
2023/05/19 00:19:09;;;;;;;3.65;2.65;;;19.00;71.80;;;;;;5012808;28;20129;-30
2023/05/19 00:21:37;;;;;;;4.55;2.40;;;;;;;;;;5012912;28;20064;-31
2023/05/19 00:24:05;;;;;;;3.85;2.30;;;19.10;71.00;;;;;;5011943;28;20050;-30
2023/05/19 00:26:31;;;;;;;3.75;2.40;;;19.10;72.00;;;;;;5012714;28;20054;-30
2023/05/19 00:28:58;;;;;;;2.97;2.10;;;19.00;59.00;;;;;;5012234;28;20074;-30
2023/05/19 00:31:25;;;;;;;2.92;2.05;;;18.90;72.20;;;;;;5012850;28;20056;-30
2023/05/19 00:33:52;;;;;;;3.72;2.28;;;19.40;60.10;;;;;;5012231;28;20124;-30
2023/05/19 00:36:20;;;;;;;3.03;2.10;;;18.80;60.10;;;;;;5011796;28;20053;-31
2023/05/19 00:38:46;;;;;;;3.58;2.13;;;18.30;58.40;;;;;;5012430;28;20419;-31
2023/05/19 00:41:13;;;;;;;3.17;2.08;;;;;;;;;;5012458;28;20136;-30
2023/05/19 00:43:40;;;;;;;4.15;2.10;;;19.30;72.90;;;;;;5011959;28;20050;-30
2023/05/19 00:46:07;;;;;;;2.55;1.90;;;17.90;71.40;;;;;;5012475;28;20132;-30
2023/05/19 00:48:34;;;;;;;3.70;2.03;;;18.90;72.90;;;;;;5012486;28;20133;-30
2023/05/19 00:51:03;;;;;;;3.92;2.05;;;;;;;;;;5011551;28;20096;-31
2023/05/19 00:53:31;;;;;;;3.75;2.35;;;18.70;72.70;;;;;;5011904;28;20046;-31
2023/05/19 00:55:58;;;;;;;2.85;1.95;;;19.20;72.00;;;;;;5012162;28;20060;-30
2023/05/19 00:58:27;;;;;;;3.63;1.90;;;;;;;;;;5011411;28;20654;-30
2023/05/19 01:01:01;;;;;;;4.05;2.45;;;18.70;72.80;;;;;;5012008;28;20450;-30
2023/05/19 01:03:29;;;;;;;4.05;2.05;;;19.00;72.90;;;;;;5011845;28;20053;-30
2023/05/19 01:05:56;;;;;;;3.58;1.95;;;20.00;72.50;;;;;;5011598;28;20077;-30
2023/05/19 01:08:23;;;;;;;2.85;2.00;;;18.60;72.70;;;;;;5011862;28;20132;-30
2023/05/19 01:10:51;;;;;;;2.95;1.88;;;18.90;58.50;;;;;;5011897;28;20058;-30
2023/05/19 01:13:17;;;;;;;2.97;1.73;;;18.90;59.90;;;;;;5011991;28;20052;-30
2023/05/19 01:15:59;;;;;;;3.40;1.98;;;18.10;71.90;;;;;;5012024;28;20134;-30
2023/05/19 01:18:32;;;;;;;4.30;2.00;;;18.00;71.50;;;;;;5011491;28;20050;-30
2023/05/19 01:21:10;;;;;;;2.92;1.90;;;18.90;53.50;;;;;;5011837;28;20489;-31
2023/05/19 01:23:39;;;;;;;3.53;2.05;;;18.30;60.70;;;;;;5011438;28;20046;-30
2023/05/19 01:26:35;;;;;;;3.38;1.88;;;19.80;71.20;;;;;;4993920;28;20054;-30
2023/05/19 01:29:26;;;;;;;3.80;2.00;;;17.70;60.10;;;;;;5012159;28;20153;-30
2023/05/19 01:31:54;;;;;;;3.08;1.90;;;18.80;53.60;;;;;;5011687;28;20085;-30
2023/05/19 01:34:20;;;;;;;4.95;2.20;;;19.10;68.60;;;;;;5011453;28;20084;-31
2023/05/19 01:36:48;;;;;;;2.97;1.73;;;;;;;;;;5011300;28;20125;-30
2023/05/19 01:39:15;;;;;;;3.03;2.45;;;19.00;72.10;;;;;;5011926;28;20049;-30
2023/05/19 01:41:42;;;;;;;2.85;1.80;;;18.00;71.60;;;;;;5011967;28;20054;-30
2023/05/19 01:44:09;;;;;;;3.17;1.80;;;19.00;55.40;;;;;;5010797;28;20128;-31
2023/05/19 01:46:36;;;;;;;3.65;1.90;;;18.80;72.40;;;;;;5011889;28;20162;-30
2023/05/19 01:49:04;;;;;;;2.35;1.60;;;19.40;63.90;;;;;;5011254;28;20437;-31
2023/05/19 01:51:31;;;;;;;3.65;2.17;;;18.50;61.40;;;;;;5011647;28;20129;-31
2023/05/19 01:53:57;;;;;;;3.78;2.00;;;18.60;60.50;;;;;;5011076;28;20133;-31
2023/05/19 01:56:28;;;;;;;3.28;1.80;;;18.10;62.00;;;;;;5010260;28;20052;-31
2023/05/19 01:58:58;;;;;;;2.13;1.70;;;18.80;53.50;;;;;;5006216;28;20137;-32
2023/05/19 02:01:29;;;;;;;2.83;1.75;;;19.30;71.40;;;;;;5011130;28;20057;-30
2023/05/19 02:04:02;;;;;;;5.28;1.70;;;18.80;72.20;;;;;;5010821;28;20133;-30
2023/05/19 02:06:36;;;;;;;3.13;1.90;;;18.50;63.50;;;;;;5011548;28;20045;-31
2023/05/19 02:09:03;;;;;;;2.60;1.70;;;18.70;53.50;;;;;;5011471;28;20136;-30
2023/05/19 02:11:35;;;;;;;3.75;1.75;;;19.00;72.30;;;;;;5014141;28;20554;-30
2023/05/19 02:14:03;;;;;;;4.03;1.70;;;18.70;53.50;;;;;;5014778;28;20503;-30
2023/05/19 02:16:30;;;;;;;2.33;1.52;;;19.50;72.90;;;;;;5014759;28;20049;-30
2023/05/19 02:18:58;;;;;;;2.72;1.70;;;19.80;72.70;;;;;;5015118;28;20054;-30
2023/05/19 02:21:25;;;;;;;3.10;1.83;;;;;;;;;;5014973;28;20052;-30
2023/05/19 02:23:53;;;;;;;2.65;1.85;;;18.70;53.50;;;;;;5014176;28;20483;-33
2023/05/19 02:26:21;;;;;;;2.95;1.75;;;;;;;;;;5015003;28;20058;-30
2023/05/19 02:28:48;;;;;;;3.25;1.90;;;18.50;64.80;;;;;;5014907;28;20046;-30
2023/05/19 02:31:15;;;;;;;2.53;1.52;;;18.50;72.40;;;;;;5014770;28;20046;-30
2023/05/19 02:33:42;;;;;;;2.58;1.60;;;19.00;73.20;;;;;;5013883;28;20137;-30
2023/05/19 02:36:09;;;;;;;3.10;1.70;;;;;;;;;;5014036;28;20065;-32
2023/05/19 02:38:36;;;;;;;3.03;1.67;;;18.30;72.00;;;;;;5014971;28;20054;-30
2023/05/19 02:41:04;;;;;;;2.75;1.60;;;19.00;65.70;;;;;;5014631;28;20073;-30
2023/05/19 02:43:31;;;;;;;2.53;1.67;;;17.60;71.60;;;;;;5014401;28;20045;-30
2023/05/19 02:45:57;;;;;;;2.92;1.52;;;19.10;72.80;;;;;;5013888;28;20483;-30
2023/05/19 02:48:24;;;;;;;2.70;1.65;;;;;;;;;;5014419;28;20133;-31
2023/05/19 02:50:51;;;;;;;2.83;1.45;;;19.00;73.30;;;;;;5014245;28;20049;-30
2023/05/19 02:53:18;;;;;;;2.47;1.50;;;18.80;72.30;;;;;;5008520;28;20843;-30
2023/05/19 02:55:45;;;;;;;2.17;1.35;;;17.90;58.20;;;;;;5014184;28;20224;-30
2023/05/19 02:58:13;;;;;;;3.03;1.80;;;18.60;53.50;;;;;;5014100;28;20144;-30
2023/05/19 03:00:39;;;;;;;3.50;1.70;;;18.20;72.30;;;;;;5014002;28;20132;-31
2023/05/19 03:03:09;;;;;;;3.63;1.50;;;18.90;72.40;;;;;;5013847;28;20487;-30
2023/05/19 03:05:36;;;;;;;2.15;1.60;;;18.70;72.60;;;;;;5014137;28;20050;-30
2023/05/19 03:08:03;;;;;;;2.90;1.75;;;;;;;;;;5013902;28;20057;-30
2023/05/19 03:10:30;;;;;;;2.25;1.55;;;18.50;53.50;;;;;;5014214;28;20050;-30
2023/05/19 03:12:57;;;;;;;1.80;1.40;;;;;;;;;;5013863;28;20141;-32
2023/05/19 03:15:25;;;;;;;2.25;1.58;;;18.40;72.10;;;;;;5013604;28;20133;-30
2023/05/19 03:17:52;;;;;;;3.42;1.65;;;;;;;;;;5013982;28;20470;-32
2023/05/19 03:20:19;;;;;;;3.20;1.40;;;17.80;59.00;;;;;;5013968;28;20412;-30
2023/05/19 03:22:45;;;;;;;2.90;1.50;;;19.00;66.30;;;;;;5013127;28;20053;-31
2023/05/19 03:25:12;;;;;;;2.40;1.50;;;18.00;72.20;;;;;;5013469;28;20582;-30
2023/05/19 03:27:39;;;;;;;2.58;1.50;;;18.20;72.10;;;;;;5013460;28;20133;-30
2023/05/19 03:30:07;;;;;;;2.78;1.40;;;18.50;60.50;;;;;;5013192;28;20124;-31
2023/05/19 03:32:36;;;;;;;3.15;1.70;;;18.50;53.50;;;;;;5013527;28;20058;-30
2023/05/19 03:35:03;;;;;;;2.03;1.52;;;18.10;72.40;;;;;;5013355;28;20096;-30
2023/05/19 03:37:31;;;;;;;3.10;1.60;;;;;;;;;;5012965;28;20499;-30
2023/05/19 03:39:58;;;;;;;3.15;1.40;;;;;;;;;;5013387;28;20049;-31
2023/05/19 03:42:25;;;;;;;2.20;1.60;;;19.00;72.80;;;;;;5013360;28;20136;-30
2023/05/19 03:44:51;;;;;;;2.88;1.65;;;18.10;72.00;;;;;;5013047;28;20050;-30
2023/05/19 03:47:18;;;;;;;2.88;1.40;;;18.70;57.60;;;;;;5013467;28;20052;-31
2023/05/19 03:49:46;;;;;;;3.13;1.60;;;18.50;53.50;;;;;;5013226;28;20046;-30
2023/05/19 03:52:13;;;;;;;2.35;1.60;;;18.90;72.50;;;;;;5012978;28;20054;-30
2023/05/19 03:54:41;;;;;;;1.83;1.30;;;18.30;72.60;;;;;;5013275;28;20471;-30
2023/05/19 03:57:08;;;;;;;1.65;1.33;;;19.30;73.10;;;;;;5013187;28;20050;-30
2023/05/19 03:59:36;;;;;;;3.20;1.42;;;17.30;72.10;;;;;;5012569;28;20056;-30
2023/05/19 04:02:03;;;;;;;2.65;1.38;;;;;;;;;;5012833;28;20466;-31
2023/05/19 04:04:30;;;;;;;2.05;1.40;;;18.60;72.80;;;;;;5012765;28;20057;-30
2023/05/19 04:06:58;;;;;;;2.83;1.60;;;18.40;53.50;;;;;;5013058;28;20050;-31
2023/05/19 04:09:25;;;;;;;2.00;1.30;;;;;;;;;;5012745;28;20475;-30
2023/05/19 04:11:52;;;;;;;2.63;1.63;;;18.70;72.40;;;;;;5012879;28;20058;-31
2023/05/19 04:14:19;;;;;;;2.00;1.33;;;18.10;72.10;;;;;;5012751;28;20129;-30
2023/05/19 04:16:46;;;;;;;1.77;1.50;;;19.20;61.50;;;;;;5012915;28;20050;-30
2023/05/19 04:19:12;;;;;;;2.70;1.50;;;18.70;72.50;;;;;;5012868;28;20076;-30
2023/05/19 04:21:39;;;;;;;2.47;1.30;;;;;;;;;;5012656;28;20132;-31
2023/05/19 04:24:08;;;;;;;2.28;1.50;;;18.40;72.70;;;;;;5012227;28;20458;-30
2023/05/19 04:26:36;;;;;;;2.88;1.40;;;18.50;62.80;;;;;;5012538;28;20046;-30
2023/05/19 04:29:03;;;;;;;2.05;1.40;;;;;;;;;;5012281;28;20437;-32
2023/05/19 04:31:30;;;;;;;2.33;1.40;;;18.10;72.20;;;;;;5012997;28;20132;-30
2023/05/19 04:33:57;;;;;;;2.33;1.38;;;18.10;72.60;;;;;;5011451;28;20132;-30
2023/05/19 04:36:24;;;;;;;2.67;1.42;;;;;;;;;;5011894;28;20120;-31
2023/05/19 04:38:53;;;;;;;2.88;1.40;;;19.10;72.80;;;;;;5012659;28;20056;-30
2023/05/19 04:41:21;;;;;;;2.67;1.40;;;17.00;63.30;;;;;;5011947;28;20065;-30
2023/05/19 04:43:48;;;;;;;3.13;1.40;;;;;;;;;;5011946;28;20054;-31
2023/05/19 04:46:15;;;;;;;2.25;1.50;;;18.60;73.50;;;;;;5012124;28;20045;-30
2023/05/19 04:48:42;;;;;;;2.80;1.35;;;;;;;;;;5012333;28;20499;-30
2023/05/19 04:51:12;;;;;;;1.88;1.20;;;18.10;73.20;;;;;;5011543;28;20560;-30
2023/05/19 04:53:40;;;;;;;2.75;1.40;;;17.40;71.50;;;;;;5012196;28;20049;-31
2023/05/19 04:56:08;;;;;;;1.75;1.25;;;18.10;72.40;;;;;;5011787;28;20048;-30
2023/05/19 04:58:36;;;;;;;1.85;1.30;;;18.50;63.30;;;;;;5012162;28;20495;-30
2023/05/19 05:01:03;;;;;;;2.35;1.23;;;18.10;72.40;;;;;;5012130;28;20124;-30
2023/05/19 05:03:31;;;;;;;2.35;1.55;;;18.20;72.80;;;;;;5011697;28;20778;-30
2023/05/19 05:05:59;;;;;;;2.83;1.40;;;;;;;;;;5011888;28;20057;-32
2023/05/19 05:08:26;;;;;;;2.28;1.40;;;18.50;72.50;;;;;;5012135;28;20060;-30
2023/05/19 05:10:53;;;;;;;2.10;1.40;;;;;;;;;;5011732;28;20050;-31
2023/05/19 05:13:21;;;;;;;1.55;1.20;;;17.60;72.40;;;;;;5011391;28;20495;-30
2023/05/19 05:15:50;;;;;;;2.55;1.58;;;18.30;53.60;;;;;;5011840;28;20052;-30
2023/05/19 05:18:18;;;;;;;2.05;1.38;;;18.90;73.20;;;;;;5011664;28;20487;-30
2023/05/19 05:20:46;;;;;;;2.95;1.70;;;18.30;53.60;;;;;;5011853;28;20507;-31
2023/05/19 05:23:14;;;;;;;2.78;1.35;;;18.00;73.10;;;;;;5011524;28;20061;-31
2023/05/19 05:25:41;;;;;;;2.00;1.45;;;17.40;72.00;;;;;;5011807;28;20049;-30
2023/05/19 05:28:07;;;;;;;1.92;1.30;;;18.40;70.70;;;;;;5011678;28;20132;-30
2023/05/19 05:30:34;;;;;;;1.95;1.30;;;17.80;72.20;;;;;;5011636;28;20126;-30
2023/05/19 05:33:03;;;;;;;2.75;1.50;;;18.30;53.60;;;;;;5011578;28;20053;-32
2023/05/19 05:35:29;;;;;;;2.33;1.40;;;17.20;55.80;;;;;;5011882;28;20084;-31
2023/05/19 05:37:56;;;;;;;1.90;1.38;;;18.30;72.50;;;;;;5011290;28;20483;-30
2023/05/19 05:40:23;;;;;;;2.15;1.45;;;18.10;72.80;;;;;;5011571;28;20136;-30
2023/05/19 05:42:50;;;;;;;1.77;1.40;;;;;;;;;;5011009;28;20438;-32
2023/05/19 05:45:17;;;;;;;1.90;1.40;;;17.90;72.40;;;;;;5004005;28;20400;-30
2023/05/19 05:47:44;;;;;;;2.67;1.42;;;17.60;73.00;;;;;;5014690;28;20655;-30
2023/05/19 05:50:13;;;;;;;2.47;1.38;;;18.00;72.30;;;;;;5012586;28;20046;-30
2023/05/19 05:52:40;;;;;;;2.20;1.40;;;17.90;62.50;;;;;;5006390;28;20511;-30
2023/05/19 05:55:08;;;;;;;1.42;1.30;;;19.10;73.00;;;;;;5003575;28;20058;-30
2023/05/19 05:57:35;;;;;;;2.30;1.33;;;18.10;72.50;;;;;;4995762;28;20575;-30
2023/05/19 06:00:04;;;;;;;2.08;1.40;;;18.20;72.40;;;;;;4996026;28;20472;-30
2023/05/19 06:02:31;;;;;;;2.28;1.40;;;;;;;;;;4995595;28;20046;-31
2023/05/19 06:04:59;;;;;;;2.72;1.33;;;;;;;;;;4995534;28;20516;-32
2023/05/19 06:07:27;;;;;;;2.08;1.33;;;18.50;72.90;;;;;;4995907;28;20042;-30
2023/05/19 06:09:55;;;;;;;2.55;1.27;;;;;;;;;;5006211;28;20128;-33
2023/05/19 06:12:22;;;;;;;2.88;1.40;;;18.70;72.50;;;;;;5014954;28;20049;-30
2023/05/19 06:14:50;;;;;;;1.80;1.38;;;17.40;57.10;;;;;;5014793;28;20053;-30
2023/05/19 06:17:17;;;;;;;1.67;1.20;;;17.90;72.70;;;;;;5015494;28;20133;-30
2023/05/19 06:19:44;;;;;;;1.75;1.27;;;18.30;72.80;;;;;;5015089;28;20573;-30
2023/05/19 06:22:11;;;;;;;1.70;1.35;;;;;;;;;;5014267;28;20133;-34
2023/05/19 06:24:39;;;;;;;1.75;1.25;;;18.70;72.80;;;;;;5012745;28;20100;-31
2023/05/19 06:27:06;;;;;;;1.80;1.30;;;19.30;72.10;;;;;;5013702;28;20054;-30
2023/05/19 06:29:32;;;;;;;2.33;1.38;;;19.20;72.10;;;;;;5014570;28;20072;-30
2023/05/19 06:31:59;;;;;;;2.55;1.20;;;20.00;56.30;;;;;;5014280;28;20128;-30
2023/05/19 06:34:26;;;;;;;1.55;1.20;;;19.70;71.90;;;;;;5014186;28;20447;-30
2023/05/19 06:36:52;;;;;;;2.47;1.40;;;19.30;71.60;;;;;;5011216;28;20121;-30
2023/05/19 06:39:20;;;;;;;1.77;1.17;;;;;;;;;;5014225;28;20235;-31
2023/05/19 06:41:48;;;;;;;2.00;1.20;;;20.20;62.10;;;;;;5014335;28;20056;-31
2023/05/19 06:44:15;;;;;;;2.00;1.20;;;19.60;71.40;;;;;;5014240;28;20064;-30
2023/05/19 06:46:43;;;;;;;1.40;1.10;;;;;;;;;;5014892;28;20129;-31
2023/05/19 06:49:10;;;;;;;1.92;1.02;;;;;;;;;;5014944;28;20100;-32
2023/05/19 06:51:36;;;;;;;1.70;1.15;;;20.10;71.20;;;;;;5014673;28;20133;-30
2023/05/19 06:54:03;;;;;;;2.40;1.20;;;;;;;;;;5013779;28;20072;-31
2023/05/19 06:56:30;;;;;;;1.70;1.15;;;19.20;71.00;;;;;;5013813;28;20121;-30
2023/05/19 06:58:58;;;;;;;1.85;1.20;;;19.70;70.80;;;;;;5008691;28;20056;-30
2023/05/19 07:01:26;;;;;;;1.52;1.20;;;20.20;68.80;;;;;;5005706;28;20131;-31
2023/05/19 07:03:53;;;;;;;1.63;1.20;;;;;;;;;;5014043;28;20124;-31
2023/05/19 07:06:20;;;;;;;1.67;1.20;;;19.80;55.80;;;;;;5014111;28;20133;-31
2023/05/19 07:08:47;;;;;;;2.22;1.70;;;19.40;70.80;;;;;;5014358;28;20455;-30
2023/05/19 07:11:14;;;;;;;1.30;1.10;;;18.80;70.00;;;;;;5013903;28;20137;-30
2023/05/19 07:13:41;;;;;;;1.77;1.10;;;;;;;;;;5014161;28;20050;-31
2023/05/19 07:16:09;;;;;;;1.90;1.30;;;19.90;70.40;;;;;;5014210;28;20133;-30
2023/05/19 07:18:36;;;;;;;2.03;1.38;;;19.70;70.20;;;;;;5013962;28;20060;-30
2023/05/19 07:21:03;;;;;;;1.50;1.10;;;;;;;;;;5014184;28;20479;-31
2023/05/19 07:23:30;;;;;;;1.48;1.23;;;;;;;;;;5013274;28;20136;-30
2023/05/19 07:25:57;;;;;;;1.27;1.15;;;;;;;;;;5013058;28;20072;-31
2023/05/19 07:28:24;;;;;;;2.55;1.40;;;19.50;70.50;;;;;;5013814;28;20054;-30
2023/05/19 07:30:50;;;;;;;1.23;1.00;;;19.00;70.30;;;;;;5014162;28;20046;-30
2023/05/19 07:33:18;;;;;;;1.80;1.05;;;19.50;63.80;;;;;;5013509;28;20077;-30
2023/05/19 07:35:46;;;;;;;2.75;1.25;;;;;;;;;;5012864;28;20057;-31
2023/05/19 07:38:13;;;;;;;1.67;1.20;;;18.70;64.30;;;;;;5009649;28;20053;-30
2023/05/19 07:40:40;;;;;;;1.67;1.30;;;;;;;;;;5012416;28;20129;-31
2023/05/19 07:43:07;;;;;;;2.05;1.30;;;;;;;;;;5012297;28;20042;-31
2023/05/19 07:45:34;;;;;;;1.40;1.20;;;20.10;70.30;;;;;;5013108;28;20132;-30
2023/05/19 07:48:01;;;;;;;2.03;1.30;;;;;;;;;;5012088;28;20049;-31
2023/05/19 07:50:29;;;;;;;1.20;1.10;;;19.50;53.20;;;;;;5010328;28;20046;-31
2023/05/19 07:52:56;;;;;;;2.13;1.30;;;20.10;63.10;;;;;;5012223;28;20096;-31
2023/05/19 07:55:23;;;;;;;1.75;1.35;;;18.80;67.70;;;;;;5013152;28;20056;-30
2023/05/19 07:57:49;;;;;;;1.63;1.20;;;20.60;69.00;;;;;;5013549;28;20050;-30
2023/05/19 08:00:17;;;;;;;2.10;1.30;;;19.50;63.60;;;;;;5013522;28;20133;-31
2023/05/19 08:02:44;;;;;;;1.42;1.13;;;;;;;;;;5012896;28;20785;-30
2023/05/19 08:05:11;;;;;;;2.50;1.20;;;19.40;70.30;;;;;;5013029;28;20050;-30
2023/05/19 08:07:39;;;;;;;1.92;1.35;;;19.30;70.10;;;;;;5012658;28;20472;-30
2023/05/19 08:10:06;;;;;;;2.53;1.60;;;19.90;71.20;;;;;;5012980;28;20537;-30
2023/05/19 08:12:33;;;;;;;2.22;1.23;;;20.20;71.10;;;;;;5005680;28;20558;-30
2023/05/19 08:15:00;;;;;;;2.28;1.25;;;;;;;;;;5005554;28;20050;-30
2023/05/19 08:17:27;;;;;;;2.72;1.27;;;20.00;61.10;;;;;;4992911;28;20057;-30
2023/05/19 08:19:54;;;;;;;2.13;1.25;;;;;;;;;;4992197;28;20138;-32
2023/05/19 08:22:21;;;;;;;2.28;1.52;;;20.30;64.00;;;;;;5002385;28;20066;-31
2023/05/19 08:24:50;;;;;;;2.28;1.33;;;19.30;71.00;;;;;;5012515;28;20053;-30
2023/05/19 08:27:17;;;;;;;1.67;1.20;;;19.50;61.10;;;;;;5012830;28;20577;-30
2023/05/19 08:29:43;;;;;;;1.50;1.20;;;19.70;66.90;;;;;;5012715;28;20140;-30
2023/05/19 08:32:10;;;;;;;2.00;1.30;;;;;;;;;;5012263;28;20046;-35
2023/05/19 08:34:38;;;;;;;2.88;1.25;;;;;;;;;;5012052;28;20474;-30
2023/05/19 08:37:05;;;;;;;1.35;1.13;;;19.60;70.20;;;;;;5011511;28;20120;-30
2023/05/19 08:39:33;;;;;;;3.22;1.30;;;20.00;70.40;;;;;;5011809;28;20057;-30
2023/05/19 08:42:01;;;;;;;2.83;1.35;;;19.90;70.00;;;;;;5012420;28;20491;-30
2023/05/19 08:44:29;;;;;;;1.88;1.20;;;20.00;70.00;;;;;;5012156;28;20129;-30
2023/05/19 08:46:56;;;;;;;1.73;1.27;;;19.80;64.70;;;;;;5012291;28;20046;-30
2023/05/19 08:49:23;;;;;;;1.63;1.10;;;20.20;69.80;;;;;;5012480;28;20050;-30
2023/05/19 08:51:54;;;;;;;2.63;1.10;;;21.40;70.20;;;;;;5012179;28;20128;-30
2023/05/19 08:54:21;;;;;;;3.58;1.20;;;20.50;70.30;;;;;;5012234;28;20052;-30
2023/05/19 08:56:48;;;;;;;2.97;1.40;;;;;;;;;;5012161;28;20046;-31
2023/05/19 08:59:16;;;;;;;2.25;1.38;;;19.90;69.60;;;;;;5012319;28;20056;-30
2023/05/19 09:01:43;;;;;;;2.10;1.33;;;20.20;70.10;;;;;;5012238;28;20125;-30
2023/05/19 09:04:09;;;;;;;2.22;1.25;;;21.00;70.40;;;;;;5011979;28;20129;-30
2023/05/19 09:06:39;;;;;;;2.30;1.30;;;;;;;;;;5012065;28;20054;-31
2023/05/19 09:09:07;;;;;;;3.30;1.30;;;21.50;58.50;;;;;;5012135;28;20057;-30
2023/05/19 09:11:34;;;;;;;2.42;1.48;;;19.20;69.10;;;;;;5011850;28;20057;-30
2023/05/19 09:14:01;;;;;;;2.30;1.30;;;20.40;70.50;;;;;;5011011;28;20046;-30
2023/05/19 09:16:29;;;;;;;1.70;1.20;;;21.00;69.90;;;;;;4999818;28;20068;-30
2023/05/19 09:18:56;;;;;;;3.65;1.52;;;20.30;69.90;;;;;;5010364;28;20053;-30
2023/05/19 09:21:32;;;;;;;2.28;1.20;;;19.40;69.30;;;;;;4996276;28;20133;-30
2023/05/19 09:24:04;;;;;;;2.10;1.63;;;20.20;69.70;;;;;;5005807;28;20141;-30
2023/05/19 09:26:36;;;;;;;1.63;1.15;;;20.50;58.70;;;;;;5011895;28;20053;-31
2023/05/19 09:29:05;;;;;;;1.65;1.17;;;20.80;63.80;;;;;;5012080;28;20067;-31
2023/05/19 09:31:33;;;;;;;1.65;1.10;;;20.40;51.10;;;;;;5010901;28;20132;-30
2023/05/19 09:34:00;;;;;;;5.63;1.60;;;20.20;69.20;;;;;;5011279;28;20495;-30
2023/05/19 09:36:27;;;;;;;2.08;1.33;;;;;;;;;;5011860;28;20052;-31
2023/05/19 09:38:53;;;;;;;1.85;1.25;;;20.00;69.10;;;;;;5014123;28;20060;-30
2023/05/19 09:41:22;;;;;;;1.92;1.35;;;20.90;55.60;;;;;;5004188;28;20089;-30
2023/05/19 09:43:54;;;;;;;1.90;1.10;;;20.20;69.20;;;;;;5011967;28;20053;-30
2023/05/19 09:46:22;;;;;;;1.35;1.15;;;20.80;69.50;;;;;;5011728;28;20053;-30
2023/05/19 09:48:50;;;;;;;2.00;1.30;;;21.60;70.20;;;;;;5011632;28;20057;-30
2023/05/19 09:51:20;;;;;;;2.55;1.30;;;;;;;;;;5011539;28;20539;-30
2023/05/19 09:53:46;;;;;;;2.17;1.27;;;20.40;69.40;;;;;;5011475;28;20101;-30
2023/05/19 09:56:13;;;;;;;2.35;1.20;;;;;;;;;;5011528;28;20164;-32
2023/05/19 09:58:41;;;;;;;1.80;1.20;;;20.70;70.00;;;;;;5011673;28;20046;-30
2023/05/19 10:01:08;;;;;;;2.33;1.33;;;21.50;70.10;;;;;;5011617;28;20586;-30
2023/05/19 10:03:35;;;;;;;2.00;1.33;;;20.80;69.20;;;;;;5011337;28;20133;-30
2023/05/19 10:06:03;;;;;;;1.92;1.20;;;19.70;54.30;;;;;;5011418;28;20054;-30
2023/05/19 10:08:30;;;;;;;1.67;1.27;;;21.50;63.00;;;;;;5010916;28;20132;-31
2023/05/19 10:10:57;;;;;;;2.22;1.50;;;20.40;69.40;;;;;;5010432;28;20132;-30
2023/05/19 10:13:24;;;;;;;2.55;1.13;;;;;;;;;;5010813;28;20062;-32
2023/05/19 10:15:51;;;;;;;1.52;1.17;;;21.00;69.70;;;;;;5011562;28;20137;-30
2023/05/19 10:18:18;;;;;;;2.55;1.40;;;20.50;69.80;;;;;;5011462;28;20082;-30
2023/05/19 10:20:44;;;;;;;1.40;1.20;;;20.80;60.40;;;;;;5011225;28;20061;-31
2023/05/19 10:23:12;;;;;;;1.67;1.40;;;20.50;68.90;;;;;;5011195;28;20405;-30
2023/05/19 10:25:39;;;;;;;1.88;1.30;;;19.70;68.90;;;;;;5011188;28;20056;-31
2023/05/19 10:28:10;;;;;;;1.30;1.00;;;19.60;68.40;;;;;;5011357;28;20053;-30
2023/05/19 10:30:38;;;;;;;1.20;1.10;;;20.70;51.00;;;;;;5011570;28;20065;-31
2023/05/19 10:33:06;;;;;;;1.88;1.33;;;20.70;51.00;;;;;;5014563;28;20081;-32
2023/05/19 10:35:40;;;;;;;1.75;1.27;;;20.70;68.90;;;;;;5014733;28;20418;-30
2023/05/19 10:38:15;;;;;;;2.33;1.30;;;20.70;50.90;;;;;;5013740;28;20133;-31
2023/05/19 10:40:49;;;;;;;3.15;1.20;;;21.10;69.40;;;;;;4995286;28;20550;-30
2023/05/19 10:43:22;;;;;;;1.42;1.10;;;21.00;69.10;;;;;;4994696;28;20054;-30
2023/05/19 10:45:49;;;;;;;2.35;1.20;;;21.90;69.90;;;;;;4995263;28;20081;-30
2023/05/19 10:48:16;;;;;;;2.13;1.20;;;21.20;69.20;;;;;;5004084;28;20081;-30
2023/05/19 10:50:44;;;;;;;2.58;1.10;;;19.60;68.40;;;;;;5014960;28;20056;-30
2023/05/19 10:53:16;;;;;;;1.90;1.35;;;20.70;51.00;;;;;;5014107;28;20053;-31
2023/05/19 10:55:47;;;;;;;3.17;1.00;;;20.90;51.40;;;;;;5014207;28;20396;-31
2023/05/19 10:58:14;;;;;;;1.40;1.05;;;21.40;69.50;;;;;;5005508;28;20502;-30
2023/05/19 11:00:41;;;;;;;2.25;1.20;;;21.60;69.50;;;;;;5014270;28;20062;-30
2023/05/19 11:03:14;;;;;;;2.33;1.20;;;20.70;51.00;;;;;;5013615;28;20053;-30
2023/05/19 11:05:44;;;;;;;2.20;1.40;;;20.70;68.90;;;;;;5014623;28;20132;-30
2023/05/19 11:08:11;;;;;;;1.77;1.30;;;21.70;69.40;;;;;;5013939;28;20128;-30
2023/05/19 11:10:39;;;;;;;1.48;1.30;;;20.30;50.80;;;;;;5013942;28;20053;-31
2023/05/19 11:13:06;;;;;;;1.20;1.00;;;;;;;;;;5013926;28;20136;-31
2023/05/19 11:15:35;;;;;;;2.03;1.30;;;20.70;51.00;;;;;;5013963;28;20487;-31
2023/05/19 11:18:01;;;;;;;1.50;1.00;;;21.50;69.40;;;;;;5014171;28;20050;-30
2023/05/19 11:20:29;;;;;;;1.55;1.10;;;21.40;55.40;;;;;;5013703;28;20137;-31
2023/05/19 11:23:05;;;;;;;1.35;1.13;;;20.70;51.00;;;;;;5013462;28;20523;-31
2023/05/19 11:25:44;;;;;;;1.45;1.08;;;21.80;55.60;;;;;;5013851;28;20061;-30
2023/05/19 11:28:11;;;;;;;1.23;1.10;;;20.40;69.10;;;;;;5013791;28;20045;-30
2023/05/19 11:30:39;;;;;;;2.97;1.15;;;;;;;;;;5013845;28;20054;-31
2023/05/19 11:33:05;;;;;;;1.58;1.05;;;20.70;68.90;;;;;;5013573;28;20056;-30
2023/05/19 11:35:33;;;;;;;1.42;1.00;;;20.80;51.10;;;;;;5013728;28;20563;-31
2023/05/19 11:37:59;;;;;;;1.30;1.05;;;21.80;69.50;;;;;;5012643;28;20050;-30
2023/05/19 11:40:26;;;;;;;2.53;1.20;;;21.10;69.90;;;;;;5013952;28;20128;-30
2023/05/19 11:42:54;;;;;;;1.25;1.08;;;20.40;55.40;;;;;;5013033;28;20566;-31
2023/05/19 11:45:24;;;;;;;1.20;0.90;;;21.10;54.60;;;;;;5013472;28;20077;-31
2023/05/19 11:47:51;;;;;;;1.83;1.20;;;20.40;68.50;;;;;;5013683;28;20042;-30
2023/05/19 11:50:18;;;;;;;1.70;1.20;;;20.60;69.00;;;;;;5013301;28;20522;-30
2023/05/19 11:52:46;;;;;;;1.13;1.00;;;;;;;;;;5007574;28;20077;-31
2023/05/19 11:55:15;;;;;;;2.15;1.02;;;20.70;69.90;;;;;;5013659;28;20531;-30
2023/05/19 11:57:43;;;;;;;1.88;1.20;;;19.70;69.00;;;;;;5013743;28;20045;-30
2023/05/19 12:00:13;;;;;;;1.55;1.20;;;20.70;51.20;;;;;;5013107;28;20096;-30
2023/05/19 12:02:40;;;;;;;1.58;1.10;;;20.70;69.00;;;;;;5012847;28;20422;-30
2023/05/19 12:05:08;;;;;;;1.48;1.17;;;;;;;;;;5012987;28;20132;-30
2023/05/19 12:07:35;;;;;;;1.48;1.10;;;20.40;69.00;;;;;;5009910;28;20057;-31
2023/05/19 12:10:02;;;;;;;1.05;0.90;;;;;;;;;;4999756;28;20093;-30
2023/05/19 12:12:29;;;;;;;1.95;1.20;;;20.10;69.00;;;;;;4993582;28;20125;-30
2023/05/19 12:14:56;;;;;;;1.75;1.20;;;20.90;70.10;;;;;;4993780;28;20046;-31
2023/05/19 12:17:24;;;;;;;2.40;1.10;;;20.50;60.00;;;;;;5011868;28;20053;-30
2023/05/19 12:19:51;;;;;;;2.00;1.17;;;;;;;;;;5013013;28;20042;-30
2023/05/19 12:22:18;;;;;;;2.53;1.40;;;21.00;60.20;;;;;;4995194;28;20106;-31
2023/05/19 12:24:45;;;;;;;2.70;1.10;;;21.00;69.40;;;;;;4993459;28;20097;-30
2023/05/19 12:27:12;;;;;;;2.00;1.20;;;21.10;69.60;;;;;;4993315;28;20385;-30
2023/05/19 12:29:39;;;;;;;2.15;1.13;;;20.00;69.00;;;;;;4993182;28;20057;-30
2023/05/19 12:32:07;;;;;;;1.88;1.20;;;20.50;69.20;;;;;;5001392;28;20061;-30
2023/05/19 12:34:37;;;;;;;2.17;1.10;;;20.70;51.50;;;;;;5012791;28;20140;-31
2023/05/19 12:37:04;;;;;;;1.55;1.20;;;20.40;69.20;;;;;;5012454;28;20058;-30
2023/05/19 12:39:31;;;;;;;1.42;1.17;;;20.50;63.00;;;;;;4993003;28;20109;-30
2023/05/19 12:42:02;;;;;;;2.10;1.10;;;21.00;69.80;;;;;;4993247;28;20051;-30
2023/05/19 12:44:30;;;;;;;2.30;1.33;;;;;;;;;;4992771;28;20050;-32
2023/05/19 12:46:57;;;;;;;1.75;1.30;;;20.60;51.60;;;;;;4993089;28;20050;-32
2023/05/19 12:49:24;;;;;;;1.58;1.25;;;20.70;69.50;;;;;;5006425;28;20156;-30
2023/05/19 12:51:53;;;;;;;2.10;1.30;;;20.60;51.70;;;;;;5005135;28;20117;-31
2023/05/19 12:54:20;;;;;;;1.70;1.20;;;20.10;69.20;;;;;;5011245;28;20128;-30
2023/05/19 12:56:50;;;;;;;2.38;1.42;;;20.40;51.60;;;;;;5012313;28;20129;-31
2023/05/19 12:59:22;;;;;;;2.75;1.40;;;20.00;51.50;;;;;;5012164;28;20487;-30
2023/05/19 13:01:56;;;;;;;2.42;1.27;;;21.70;70.10;;;;;;5012061;28;20046;-30
2023/05/19 13:04:23;;;;;;;2.47;1.30;;;20.90;69.90;;;;;;5012011;28;20491;-30
2023/05/19 13:06:49;;;;;;;2.25;1.40;;;20.70;64.40;;;;;;5011971;28;20133;-31
2023/05/19 13:09:18;;;;;;;1.42;1.30;;;20.70;69.80;;;;;;5011586;28;20050;-30